createdAt,value
2022-10-23T00:01:33.691Z,12.56
2022-10-23T00:04:28.200Z,12.45
2022-10-23T00:06:54.833Z,12.57
2022-10-23T00:09:23.735Z,12.57
2022-10-23T00:11:51.761Z,12.45
2022-10-23T00:14:21.231Z,12.30
2022-10-23T00:16:47.883Z,12.49
2022-10-23T00:19:14.524Z,12.43
2022-10-23T00:21:41.152Z,12.53
2022-10-23T00:26:38.307Z,12.40
2022-10-23T00:29:04.886Z,12.43
2022-10-23T00:31:31.922Z,12.41
2022-10-23T00:34:00.895Z,12.47
2022-10-23T00:36:27.920Z,12.42
2022-10-23T00:38:55.190Z,12.43
2022-10-23T00:41:29.878Z,12.34
2022-10-23T00:44:31.111Z,12.28
2022-10-23T00:46:59.498Z,12.30
2022-10-23T00:49:26.208Z,12.19
2022-10-23T00:52:02.108Z,12.32
2022-10-23T00:54:34.358Z,12.16
2022-10-23T00:57:04.603Z,12.11
2022-10-23T00:59:31.917Z,12.07
2022-10-23T01:01:59.355Z,11.99
2022-10-23T01:04:27.798Z,11.98
2022-10-23T01:06:58.208Z,11.99
2022-10-23T01:09:30.859Z,11.97
2022-10-23T01:12:23.937Z,12.06
2022-10-23T01:15:03.259Z,11.97
2022-10-23T01:17:42.285Z,11.75
2022-10-23T01:20:25.730Z,11.71
2022-10-23T01:23:16.465Z,11.68
2022-10-23T01:26:07.892Z,11.64
2022-10-23T01:28:44.078Z,11.67
2022-10-23T01:31:17.234Z,11.73
2022-10-23T01:33:55.015Z,11.72
2022-10-23T01:36:29.258Z,11.74
2022-10-23T01:39:12.014Z,11.69
2022-10-23T01:41:52.233Z,11.62
2022-10-23T01:44:27.861Z,11.51
2022-10-23T01:46:57.005Z,11.57
2022-10-23T01:49:24.760Z,11.48
2022-10-23T01:51:59.316Z,11.33
2022-10-23T01:54:31.364Z,11.35
2022-10-23T01:56:59.289Z,11.34
2022-10-23T01:59:37.257Z,11.44
2022-10-23T02:02:07.391Z,11.22
2022-10-23T02:04:39.819Z,11.40
2022-10-23T02:07:06.638Z,11.28
2022-10-23T02:09:33.706Z,11.25
2022-10-23T02:12:14.153Z,11.21
2022-10-23T02:14:52.718Z,11.17
2022-10-23T02:17:36.530Z,11.21
2022-10-23T02:23:17.459Z,11.14
2022-10-23T02:25:48.400Z,11.21
2022-10-23T02:28:21.925Z,11.14
2022-10-23T02:30:50.464Z,11.10
2022-10-23T02:33:18.893Z,11.07
2022-10-23T02:35:47.239Z,10.98
2022-10-23T02:38:32.823Z,11.02
2022-10-23T02:41:13.278Z,10.99
2022-10-23T02:43:50.861Z,11.01
2022-10-23T02:46:29.120Z,10.81
2022-10-23T02:49:20.388Z,10.86
2022-10-23T02:52:16.599Z,10.78
2022-10-23T02:54:43.074Z,10.79
2022-10-23T02:57:21.983Z,10.72
2022-10-23T03:00:02.025Z,10.75
2022-10-23T03:02:36.620Z,10.76
2022-10-23T03:05:06.725Z,10.69
2022-10-23T03:07:33.869Z,10.63
2022-10-23T03:10:05.931Z,10.78
2022-10-23T03:12:33.143Z,10.80
2022-10-23T03:14:59.787Z,10.60
2022-10-23T03:17:26.551Z,10.72
2022-10-23T03:19:56.363Z,10.61
2022-10-23T03:22:23.532Z,10.65
2022-10-23T03:24:50.195Z,10.66
2022-10-23T03:27:16.994Z,10.62
2022-10-23T03:29:43.720Z,10.62
2022-10-23T03:32:10.277Z,10.54
2022-10-23T03:34:36.925Z,10.68
2022-10-23T03:37:04.834Z,10.69
2022-10-23T03:39:31.546Z,10.69
2022-10-23T03:41:58.156Z,10.71
2022-10-23T03:44:24.930Z,10.79
2022-10-23T03:46:51.539Z,10.70
2022-10-23T03:49:18.194Z,10.70
2022-10-23T03:51:51.833Z,10.71
2022-10-23T03:54:22.800Z,10.66
2022-10-23T03:56:52.457Z,10.58
2022-10-23T03:59:21.751Z,10.66
2022-10-23T04:01:49.242Z,10.68
2022-10-23T04:04:16.013Z,10.75
2022-10-23T04:06:43.420Z,10.93
2022-10-23T04:11:41.254Z,11.12
2022-10-23T04:14:11.965Z,11.20
2022-10-23T04:16:38.828Z,11.24
2022-10-23T04:19:06.100Z,11.30
2022-10-23T04:21:32.743Z,11.39
2022-10-23T04:24:00.684Z,11.44
2022-10-23T04:26:27.344Z,11.40
2022-10-23T04:28:53.938Z,11.46
2022-10-23T04:31:20.622Z,11.56
2022-10-23T04:33:47.237Z,11.57
2022-10-23T04:36:27.134Z,11.50
2022-10-23T04:38:53.794Z,11.57
2022-10-23T04:41:20.543Z,11.48
2022-10-23T04:43:47.189Z,11.46
2022-10-23T04:46:14.978Z,11.61
2022-10-23T04:48:47.319Z,11.67
2022-10-23T04:51:49.489Z,11.57
2022-10-23T04:54:37.720Z,11.54
2022-10-23T04:57:23.248Z,11.62
2022-10-23T04:59:58.087Z,11.66
2022-10-23T05:02:24.799Z,11.59
2022-10-23T05:04:52.475Z,11.54
2022-10-23T05:07:49.867Z,11.56
2022-10-23T05:10:42.650Z,11.51
2022-10-23T05:13:14.309Z,11.67
2022-10-23T05:15:41.327Z,11.63
2022-10-23T05:18:24.912Z,11.68
2022-10-23T05:20:56.884Z,11.77
2022-10-23T05:23:25.330Z,11.86
2022-10-23T05:25:55.651Z,11.79
2022-10-23T05:28:22.269Z,11.90
2022-10-23T05:30:49.576Z,11.91
2022-10-23T05:33:17.210Z,11.88
2022-10-23T05:35:45.381Z,12.00
2022-10-23T05:38:15.061Z,12.05
2022-10-23T05:40:42.607Z,12.04
2022-10-23T05:43:14.410Z,12.14
2022-10-23T05:45:55.998Z,12.14
2022-10-23T05:48:41.515Z,12.13
2022-10-23T05:51:10.801Z,12.15
2022-10-23T05:53:54.484Z,12.12
2022-10-23T05:56:44.231Z,12.15
2022-10-23T05:59:23.129Z,12.07
2022-10-23T06:02:22.849Z,12.13
2022-10-23T06:04:58.464Z,12.06
2022-10-23T06:07:51.297Z,11.99
2022-10-23T06:10:18.909Z,12.04
2022-10-23T06:12:52.208Z,12.02
2022-10-23T06:15:19.081Z,11.98
2022-10-23T06:18:06.100Z,12.09
2022-10-23T06:20:36.375Z,12.04
2022-10-23T06:23:08.796Z,12.19
2022-10-23T06:25:55.784Z,12.29
2022-10-23T06:28:30.954Z,12.25
2022-10-23T06:30:58.355Z,12.27
2022-10-23T06:33:25.142Z,12.14
2022-10-23T06:35:56.307Z,12.16
2022-10-23T06:38:23.332Z,12.29
2022-10-23T06:40:56.019Z,12.36
2022-10-23T06:43:30.313Z,12.42
2022-10-23T06:46:19.131Z,12.45
2022-10-23T06:49:04.258Z,12.49
2022-10-23T06:51:35.596Z,12.43
2022-10-23T06:54:11.261Z,12.43
2022-10-23T06:56:46.992Z,12.54
2022-10-23T06:59:17.217Z,12.68
2022-10-23T07:01:44.086Z,12.64
2022-10-23T07:04:13.655Z,12.56
2022-10-23T07:06:42.421Z,12.61
2022-10-23T07:09:10.761Z,12.54
2022-10-23T07:11:52.315Z,12.77
2022-10-23T07:14:22.073Z,12.85
2022-10-23T07:16:49.296Z,12.87
2022-10-23T07:19:16.011Z,12.84
2022-10-23T07:21:51.710Z,12.75
2022-10-23T07:24:40.829Z,12.93
2022-10-23T07:27:27.793Z,12.95
2022-10-23T07:29:57.048Z,13.01
2022-10-23T07:32:24.679Z,13.16
2022-10-23T07:35:12.003Z,12.99
2022-10-23T07:37:42.256Z,13.15
2022-10-23T07:40:09.668Z,13.20
2022-10-23T07:42:42.858Z,13.37
2022-10-23T07:45:10.094Z,13.20
2022-10-23T07:47:39.815Z,13.18
2022-10-23T07:50:08.520Z,13.31
2022-10-23T07:52:36.231Z,13.49
2022-10-23T07:55:10.162Z,13.62
2022-10-23T07:57:40.871Z,13.63
2022-10-23T08:00:16.658Z,13.61
2022-10-23T08:02:54.383Z,13.90
2022-10-23T08:05:21.146Z,13.93
2022-10-23T08:07:54.651Z,13.84
2022-10-23T08:10:22.202Z,13.97
2022-10-23T08:12:48.720Z,14.10
2022-10-23T08:15:16.307Z,14.25
2022-10-23T08:17:57.314Z,14.28
2022-10-23T08:20:40.725Z,14.32
2022-10-23T08:23:09.275Z,14.43
2022-10-23T08:25:36.916Z,14.50
2022-10-23T08:28:06.203Z,14.51
2022-10-23T08:30:39.860Z,14.57
2022-10-23T08:33:07.414Z,14.65
2022-10-23T08:35:38.727Z,14.80
2022-10-23T08:38:07.252Z,14.84
2022-10-23T08:40:45.946Z,14.88
2022-10-23T08:43:44.367Z,15.01
2022-10-23T08:46:34.341Z,15.00
2022-10-23T08:49:30.091Z,15.12
2022-10-23T08:52:16.539Z,15.16
2022-10-23T08:54:55.395Z,15.18
2022-10-23T08:57:24.342Z,15.21
2022-10-23T09:00:20.310Z,15.33
2022-10-23T09:02:50.625Z,15.38
2022-10-23T09:05:30.487Z,15.50
2022-10-23T09:08:12.788Z,15.49
2022-10-23T09:10:50.695Z,15.65
2022-10-23T09:13:39.731Z,15.68
2022-10-23T09:16:21.617Z,15.66
2022-10-23T09:18:48.900Z,15.80
2022-10-23T09:21:16.090Z,15.91
2022-10-23T09:23:42.683Z,15.86
2022-10-23T09:26:17.286Z,16.03
2022-10-23T09:28:50.354Z,16.03
2022-10-23T09:31:19.184Z,16.08
2022-10-23T09:33:56.117Z,16.30
2022-10-23T09:36:24.434Z,16.20
2022-10-23T09:38:53.701Z,16.26
2022-10-23T09:41:27.555Z,16.39
2022-10-23T09:44:15.654Z,16.43
2022-10-23T09:46:45.477Z,16.62
2022-10-23T09:49:18.359Z,16.58
2022-10-23T09:51:56.061Z,16.69
2022-10-23T09:54:26.031Z,16.73
2022-10-23T09:56:54.646Z,16.91
2022-10-23T09:59:26.759Z,16.94
2022-10-23T10:01:59.748Z,17.02
2022-10-23T10:04:33.582Z,17.13
2022-10-23T10:07:02.049Z,17.22
2022-10-23T10:09:28.969Z,17.31
2022-10-23T10:12:12.368Z,17.48
2022-10-23T10:15:17.794Z,17.32
2022-10-23T10:17:53.502Z,17.60
2022-10-23T10:20:40.500Z,17.66
2022-10-23T10:23:18.223Z,17.66
2022-10-23T10:25:53.183Z,17.57
2022-10-23T10:28:42.314Z,17.83
2022-10-23T10:31:37.136Z,17.71
2022-10-23T10:34:22.095Z,17.87
2022-10-23T10:36:55.819Z,17.86
2022-10-23T10:39:45.675Z,17.89
2022-10-23T10:42:36.584Z,17.88
2022-10-23T10:45:06.348Z,18.06
2022-10-23T10:47:51.715Z,18.05
2022-10-23T10:50:40.553Z,18.04
2022-10-23T10:53:34.540Z,18.17
2022-10-23T10:56:04.550Z,18.09
2022-10-23T10:58:57.705Z,18.32
2022-10-23T11:01:33.467Z,18.56
2022-10-23T11:04:09.657Z,18.69
2022-10-23T11:06:37.919Z,18.56
2022-10-23T11:09:21.062Z,18.71
2022-10-23T11:11:48.751Z,18.88
2022-10-23T11:14:21.967Z,19.02
2022-10-23T11:16:59.696Z,19.00
2022-10-23T11:19:42.183Z,19.04
2022-10-23T11:22:20.984Z,18.98
2022-10-23T11:25:13.566Z,19.11
2022-10-23T11:28:08.589Z,18.95
2022-10-23T11:30:43.555Z,18.95
2022-10-23T11:33:28.570Z,18.93
2022-10-23T11:36:16.621Z,19.19
2022-10-23T11:38:46.744Z,19.03
2022-10-23T11:41:21.044Z,19.05
2022-10-23T11:43:57.517Z,19.06
2022-10-23T11:46:25.453Z,19.28
2022-10-23T11:48:53.824Z,19.28
2022-10-23T11:51:37.909Z,19.37
2022-10-23T11:54:10.260Z,19.37
2022-10-23T11:57:10.402Z,19.42
2022-10-23T11:59:37.851Z,19.35
2022-10-23T12:02:22.127Z,19.29
2022-10-23T12:04:53.819Z,19.29
2022-10-23T12:07:34.381Z,19.41
2022-10-23T12:10:05.782Z,19.29
2022-10-23T12:12:43.160Z,19.30
2022-10-23T12:15:15.649Z,19.25
2022-10-23T12:17:43.770Z,19.04
2022-10-23T12:20:14.010Z,19.19
2022-10-23T12:22:47.992Z,19.21
2022-10-23T12:25:31.267Z,19.20
2022-10-23T12:28:06.775Z,19.10
2022-10-23T12:30:47.134Z,19.20
2022-10-23T12:33:40.339Z,19.19
2022-10-23T12:36:24.119Z,19.00
2022-10-23T12:38:51.412Z,19.10
2022-10-23T12:41:31.729Z,19.11
2022-10-23T12:44:20.496Z,19.06
2022-10-23T12:47:49.765Z,19.14
2022-10-23T12:51:01.364Z,18.91
2022-10-23T12:53:32.649Z,18.61
2022-10-23T12:56:32.995Z,18.54
2022-10-23T12:59:22.733Z,18.98
2022-10-23T13:02:24.472Z,18.76
2022-10-23T13:07:53.723Z,18.68
2022-10-23T13:10:54.948Z,18.89
2022-10-23T13:13:53.567Z,18.96
2022-10-23T13:16:28.495Z,18.90
2022-10-23T13:19:12.675Z,19.00
2022-10-23T13:21:58.707Z,19.22
2022-10-23T13:24:50.416Z,19.14
2022-10-23T13:31:46.447Z,19.05
2022-10-23T13:34:31.044Z,19.32
2022-10-23T13:37:11.185Z,19.48
2022-10-23T13:39:40.509Z,19.40
2022-10-23T13:42:48.526Z,18.97
2022-10-23T13:45:49.942Z,19.51
2022-10-23T13:48:34.089Z,19.54
2022-10-23T13:52:05.702Z,19.50
2022-10-23T13:55:41.653Z,19.52
2022-10-23T13:58:42.349Z,19.56
2022-10-23T14:05:41.117Z,19.56
2022-10-23T14:09:07.800Z,19.31
2022-10-23T14:12:27.763Z,19.94
2022-10-23T14:22:06.969Z,19.67
2022-10-23T14:32:18.254Z,19.53
2022-10-23T14:35:57.921Z,19.68
2022-10-23T14:43:13.684Z,19.69
2022-10-23T14:50:22.995Z,19.52
2022-10-23T14:53:16.562Z,19.22
2022-10-23T14:56:37.965Z,19.09
2022-10-23T15:03:25.932Z,19.52
2022-10-23T15:14:24.102Z,18.83
2022-10-23T15:28:28.940Z,18.70
2022-10-23T15:32:58.849Z,18.55
2022-10-23T15:35:18.036Z,18.53
2022-10-23T15:42:19.206Z,18.45
2022-10-23T15:44:52.644Z,18.67
2022-10-23T15:47:33.927Z,18.63
2022-10-23T15:50:03.477Z,18.74
2022-10-23T15:52:31.998Z,18.47
2022-10-23T15:55:09.009Z,18.62
2022-10-23T15:57:55.129Z,18.48
2022-10-23T16:10:01.634Z,17.90
2022-10-23T16:13:07.634Z,18.21
2022-10-23T16:17:10.109Z,17.81
2022-10-23T16:20:48.018Z,18.22
2022-10-23T16:23:48.919Z,18.10
2022-10-23T16:31:47.264Z,17.53
2022-10-23T16:45:52.202Z,17.46
2022-10-23T16:48:30.714Z,17.60
2022-10-23T16:55:09.724Z,16.95
2022-10-23T17:01:37.035Z,16.94
2022-10-23T17:04:45.555Z,17.39
2022-10-23T17:08:15.808Z,16.82
2022-10-23T17:11:31.147Z,16.89
2022-10-23T17:14:17.870Z,16.87
2022-10-23T17:17:07.729Z,16.82
2022-10-23T17:28:30.554Z,17.08
2022-10-23T17:32:03.640Z,16.87
2022-10-23T17:35:13.195Z,16.75
2022-10-23T17:41:42.225Z,16.57
2022-10-23T17:44:15.003Z,16.66
2022-10-23T17:46:41.927Z,16.89
2022-10-23T17:49:08.659Z,16.88
2022-10-23T17:51:36.038Z,16.93
2022-10-23T17:54:06.098Z,16.72
2022-10-23T17:56:34.482Z,16.79
2022-10-23T17:59:07.494Z,16.67
2022-10-23T18:01:34.493Z,16.86
2022-10-23T18:04:04.372Z,16.67
2022-10-23T18:06:34.434Z,16.61
2022-10-23T18:09:02.720Z,16.67
2022-10-23T18:11:32.553Z,16.58
2022-10-23T18:16:28.412Z,16.71
2022-10-23T18:18:55.956Z,16.60
2022-10-23T18:21:24.298Z,16.31
2022-10-23T18:23:52.165Z,16.48
2022-10-23T18:26:24.717Z,16.63
2022-10-23T18:28:56.857Z,16.69
2022-10-23T18:31:25.211Z,16.73
2022-10-23T18:34:01.434Z,16.82
2022-10-23T18:36:31.326Z,16.93
2022-10-23T18:38:58.349Z,16.85
2022-10-23T18:41:25.153Z,16.55
2022-10-23T18:43:53.247Z,16.51
2022-10-23T18:46:20.752Z,16.59
2022-10-23T18:48:48.111Z,16.55
2022-10-23T18:51:23.593Z,16.60
2022-10-23T18:53:51.550Z,16.44
2022-10-23T18:56:24.197Z,16.42
2022-10-23T18:58:52.830Z,16.45
2022-10-23T19:01:21.013Z,16.62
2022-10-23T19:03:47.948Z,16.53
2022-10-23T19:06:15.084Z,16.63
2022-10-23T19:08:53.446Z,16.70
2022-10-23T19:11:22.213Z,16.53
2022-10-23T19:13:48.773Z,16.55
2022-10-23T19:16:22.722Z,16.37
2022-10-23T19:18:59.310Z,16.27
2022-10-23T19:21:34.335Z,16.39
2022-10-23T19:24:03.866Z,16.43
2022-10-23T19:26:32.947Z,16.36
2022-10-23T19:29:04.179Z,16.43
2022-10-23T19:31:34.029Z,16.41
2022-10-23T19:34:00.625Z,16.41
2022-10-23T19:36:27.187Z,16.27
2022-10-23T19:38:53.811Z,16.34
2022-10-23T19:41:20.616Z,16.39
2022-10-23T19:43:47.338Z,16.38
2022-10-23T19:46:14.007Z,16.55
2022-10-23T19:48:44.904Z,16.58
2022-10-23T19:51:14.369Z,16.44
2022-10-23T19:56:24.834Z,16.42
2022-10-23T19:58:53.043Z,16.28
2022-10-23T20:01:25.199Z,16.40
2022-10-23T20:03:56.000Z,16.27
2022-10-23T20:06:28.806Z,16.29
2022-10-23T20:08:55.941Z,16.36
2022-10-23T20:11:26.080Z,16.34
2022-10-23T20:13:52.614Z,16.26
2022-10-23T20:16:29.799Z,16.29
2022-10-23T20:18:57.127Z,16.28
2022-10-23T20:21:24.602Z,16.29
2022-10-23T20:23:51.366Z,16.27
2022-10-23T20:26:21.929Z,16.28
2022-10-23T20:28:51.560Z,16.33
2022-10-23T20:31:20.346Z,16.37
2022-10-23T20:33:47.170Z,16.33
2022-10-23T20:36:37.944Z,16.34
2022-10-23T20:39:09.890Z,16.29
2022-10-23T20:41:37.478Z,16.11
2022-10-23T20:44:10.729Z,16.24
2022-10-23T20:46:37.667Z,16.20
2022-10-23T20:49:04.843Z,16.16
2022-10-23T20:51:31.434Z,16.06
2022-10-23T20:53:58.291Z,16.04
2022-10-23T20:56:31.409Z,16.02
2022-10-23T20:59:11.233Z,15.98
2022-10-23T21:01:41.403Z,15.98
2022-10-23T21:04:08.775Z,16.02
2022-10-23T21:06:46.143Z,16.10
2022-10-23T21:09:28.203Z,15.93
2022-10-23T21:11:54.760Z,15.91
2022-10-23T21:14:21.457Z,15.87
2022-10-23T21:16:48.107Z,15.97
2022-10-23T21:19:15.969Z,15.85
2022-10-23T21:21:43.332Z,15.82
2022-10-23T21:24:16.279Z,15.76
2022-10-23T21:26:44.120Z,15.82
2022-10-23T21:29:19.749Z,15.76
2022-10-23T21:31:57.967Z,15.75
2022-10-23T21:34:25.942Z,15.57
2022-10-23T21:39:39.533Z,15.63
2022-10-23T21:42:07.005Z,15.70
2022-10-23T21:44:34.085Z,15.64
2022-10-23T21:47:01.454Z,15.69
2022-10-23T21:49:28.105Z,15.64
2022-10-23T21:51:55.337Z,15.76
2022-10-23T21:54:23.634Z,15.64
2022-10-23T21:56:57.883Z,15.79
2022-10-23T21:59:28.848Z,15.76
2022-10-23T22:02:04.910Z,15.63
2022-10-23T22:04:32.754Z,15.84
2022-10-23T22:06:59.299Z,15.75
2022-10-23T22:09:26.697Z,15.89
2022-10-23T22:11:54.039Z,16.00
2022-10-23T22:14:21.471Z,16.02
2022-10-23T22:16:52.962Z,15.93
2022-10-23T22:19:43.283Z,16.04
2022-10-23T22:22:13.707Z,15.88
2022-10-23T22:24:40.867Z,15.74
2022-10-23T22:27:18.463Z,15.75
2022-10-23T22:29:52.161Z,15.76
2022-10-23T22:34:53.468Z,15.94
2022-10-23T22:37:20.448Z,16.00
2022-10-23T22:39:50.723Z,15.98
2022-10-23T22:42:17.231Z,15.91
2022-10-23T22:44:47.728Z,15.95
2022-10-23T22:47:17.796Z,15.95
2022-10-23T22:49:49.790Z,15.98
2022-10-23T22:52:19.663Z,15.89
2022-10-23T22:54:48.176Z,16.01
2022-10-23T22:57:15.953Z,15.93
2022-10-23T22:59:43.579Z,15.86
2022-10-23T23:02:10.576Z,15.88
2022-10-23T23:04:39.735Z,15.78
2022-10-23T23:07:11.142Z,15.80
2022-10-23T23:09:42.906Z,15.78
2022-10-23T23:12:13.580Z,15.64
2022-10-23T23:14:43.374Z,15.57
2022-10-23T23:17:10.317Z,15.51
2022-10-23T23:19:36.949Z,15.36
2022-10-23T23:22:03.990Z,15.38
2022-10-23T23:24:30.802Z,15.44
2022-10-23T23:26:57.454Z,15.42
2022-10-23T23:29:24.053Z,15.27
2022-10-23T23:32:06.303Z,15.35
2022-10-23T23:34:35.491Z,15.37
2022-10-23T23:37:02.032Z,15.35
2022-10-23T23:39:28.894Z,15.45
2022-10-23T23:41:55.574Z,15.35
2022-10-23T23:44:22.146Z,15.25
2022-10-23T23:46:56.519Z,15.36
2022-10-23T23:49:29.015Z,15.30
2022-10-23T23:51:55.595Z,15.34
2022-10-23T23:54:22.442Z,15.33
2022-10-23T23:56:49.215Z,15.34
2022-10-23T23:59:16.301Z,15.40
